Time;durP1;ratioP1;P1;durP2;ratioP2;P2;SDS_P1;SDS_P2;PMS_P1;PMS_P2;Temp;Humidity;BMP_temperature;BMP_pressure;BME280_temperature;BME280_humidity;BME280_pressure;Samples;Min_cycle;Max_cycle;Signal;HPM_P1;HPM_P2
2022/04/23 00:00:23;;;;;;;13.85;8.77;;;;;;;10.86;68.35;100262.34;4939931;29;20043;-89
2022/04/23 00:02:51;;;;;;;16.17;8.48;;;;;;;10.97;68.00;100248.53;4939564;28;20510;-90
2022/04/23 00:05:17;;;;;;;15.65;9.20;;;;;;;10.96;67.68;100241.50;4957657;28;20027;-89
2022/04/23 00:07:42;;;;;;;19.48;9.45;;;;;;;11.14;67.12;100254.69;4960318;28;20029;-89
2022/04/23 00:10:08;;;;;;;15.05;8.85;;;;;;;11.15;67.46;100259.06;4944266;28;20404;-89
2022/04/23 00:12:34;;;;;;;;;;;;;;;11.18;66.92;100245.25;4942997;28;20031;-90
2022/04/23 00:15:01;;;;;;;;;;;;;;;11.06;67.72;100243.97;4964556;28;19910;-90
2022/04/23 00:17:29;;;;;;;;;;;;;;;11.28;66.95;100239.66;4941019;28;20299;-90
2022/04/23 00:19:54;;;;;;;;;;;;;;;11.29;66.83;100222.50;4964855;28;19910;-91
2022/04/23 00:22:20;;;;;;;;;;;;;;;11.29;66.95;100231.41;4960211;28;19917;-90
2022/04/23 00:24:45;;;;;;;;;;;;;;;11.33;66.01;100222.00;4933622;28;19939;-90
2022/04/23 00:27:13;;;;;;;;;;;;;;;11.43;66.21;100237.91;4971722;28;19968;-91
2022/04/23 00:29:39;;;;;;;;;;;;;;;11.41;66.27;100246.16;4952894;29;19925;-90
2022/04/23 00:32:05;;;;;;;;;;;;;;;11.56;65.79;100248.09;4958107;28;19919;-89
2022/04/23 00:34:31;;;;;;;;;;;;;;;11.57;65.65;100242.53;4967073;28;20409;-89
2022/04/23 00:36:56;;;;;;;;;;;;;;;11.54;65.68;100240.22;4956241;28;19914;-90
2022/04/23 00:39:21;;;;;;;;;;;;;;;11.64;65.56;100239.16;4953096;28;19914;-91
2022/04/23 00:41:47;;;;;;;;;;;;;;;11.61;65.62;100230.41;4974337;28;20009;-90
2022/04/23 00:44:15;;;;;;;;;;;;;;;11.35;65.63;100219.09;4965320;28;19965;-91
2022/04/23 00:46:41;;;;;;;;;;;;;;;11.40;66.13;100228.34;4939495;28;20447;-90
2022/04/23 00:49:06;;;;;;;;;;;;;;;11.35;66.04;100189.50;4949114;29;19947;-91
2022/04/23 00:51:32;;;;;;;;;;;;;;;11.40;65.95;100195.19;4956280;28;19953;-88
2022/04/23 00:53:58;;;;;;;;;;;;;;;11.36;66.15;100193.88;4929907;29;19911;-89
2022/04/23 00:56:26;;;;;;;;;;;;;;;11.51;65.78;100189.38;4955526;29;19918;-90
2022/04/23 00:58:51;;;;;;;;;;;;;;;11.51;65.54;100169.72;4952497;28;19921;-90
2022/04/23 01:01:18;;;;;;;;;;;;;;;11.46;65.60;100172.94;4958166;28;20275;-90
2022/04/23 01:03:44;;;;;;;;;;;;;;;11.37;66.15;100160.56;4952339;28;20009;-89
2022/04/23 01:06:10;;;;;;;;;;;;;;;11.22;65.80;100151.59;4957930;29;20402;-88
2022/04/23 01:08:36;;;;;;;;;;;;;;;11.39;65.26;100151.28;4935452;28;20290;-89
2022/04/23 01:11:02;;;;;;;;;;;;;;;11.48;65.00;100144.00;4976302;28;19918;-90
2022/04/23 01:13:27;;;;;;;;;;;;;;;11.48;64.77;100160.16;4947394;29;19962;-89
2022/04/23 01:16:02;;;;;;;;;;;;;;;11.42;64.48;100150.09;4919526;29;20462;-90
2022/04/23 01:18:27;;;;;;;;;;;;;;;11.45;64.48;100147.06;4961712;28;20383;-90
2022/04/23 01:20:53;;;;;;;;;;;;;;;11.52;64.12;100134.56;4954563;28;19953;-90
2022/04/23 01:23:19;;;;;;;;;;;;;;;11.46;64.63;100154.09;4964731;28;20310;-90
2022/04/23 01:25:45;;;;;;;;;;;;;;;11.47;64.59;100126.19;4956558;28;19915;-89
2022/04/23 01:28:15;;;;;;;;;;;;;;;11.51;64.46;100119.41;4963255;28;19937;-89
2022/04/23 01:30:40;;;;;;;;;;;;;;;11.68;63.66;100121.97;4921767;29;19921;-90
2022/04/23 01:33:06;;;;;;;;;;;;;;;11.72;63.78;100113.34;4942634;28;19910;-90
2022/04/23 01:35:31;;;;;;;;;;;;;;;11.70;63.70;100120.75;4959104;28;19914;-89
2022/04/23 01:37:56;;;;;;;;;;;;;;;11.80;63.59;100121.34;4935193;29;20363;-90
2022/04/23 01:40:22;;;;;;;;;;;;;;;11.79;63.75;100133.13;4965181;28;20020;-91
2022/04/23 01:42:47;;;;;;;;;;;;;;;11.73;64.02;100152.72;4967617;28;19915;-90
2022/04/23 01:45:14;;;;;;;;;;;;;;;11.78;63.96;100144.94;4974391;28;19917;-90
2022/04/23 01:47:43;;;;;;;;;;;;;;;11.89;63.67;100138.28;4950505;28;19920;-90
2022/04/23 01:50:08;;;;;;;;;;;;;;;11.81;63.89;100139.19;4961357;28;19918;-89
2022/04/23 01:52:34;;;;;;;;;;;;;;;11.92;64.04;100145.19;4958153;28;19922;-89
2022/04/23 01:54:59;;;;;;;;;;;;;;;11.94;63.71;100138.59;4962231;28;19922;-89
2022/04/23 01:57:24;;;;;;;;;;;;;;;12.07;62.97;100126.34;4956876;28;19918;-89
2022/04/23 01:59:49;;;;;;;;;;;;;;;12.03;62.83;100126.75;4963510;28;19950;-88
2022/04/23 02:02:15;;;;;;;;;;;;;;;11.95;63.20;100110.63;4958678;28;19973;-90
2022/04/23 02:04:40;;;;;;;;;;;;;;;11.88;63.53;100115.09;4931460;29;20362;-88
2022/04/23 02:07:05;;;;;;;;;;;;;;;12.00;62.86;100132.47;4944688;28;20402;-88
2022/04/23 02:09:33;;;;;;;;;;;;;;;11.95;63.25;100128.66;4967445;28;20378;-91
2022/04/23 02:11:58;;;;;;;;;;;;;;;11.94;63.44;100111.66;4959958;28;19926;-91
2022/04/23 02:14:23;;;;;;;;;;;;;;;12.01;63.01;100106.34;4939408;29;19914;-90
2022/04/23 02:16:49;;;;;;;;;;;;;;;11.99;63.23;100103.88;4955221;28;19934;-89
2022/04/23 02:19:14;;;;;;;;;;;;;;;12.04;62.98;100100.63;4987000;28;19906;-90
2022/04/23 02:21:39;;;;;;;;;;;;;;;12.01;62.97;100096.44;4972446;28;20282;-90
2022/04/23 02:24:05;;;;;;;;;;;;;;;11.99;63.03;100074.25;4948158;29;20347;-89
2022/04/23 02:26:30;;;;;;;;;;;;;;;11.94;63.38;100095.50;4956820;28;20360;-90
2022/04/23 02:28:56;;;;;;;;;;;;;;;11.98;63.49;100064.47;4963205;28;20286;-90
2022/04/23 02:31:21;;;;;;;;;;;;;;;11.99;63.15;100093.09;4974486;28;20053;-88
2022/04/23 02:33:46;;;;;;;;;;;;;;;11.92;63.33;100094.03;4962420;28;19965;-90
2022/04/23 02:36:11;;;;;;;;;;;;;;;11.91;63.56;100098.53;4977749;28;20290;-90
2022/04/23 02:38:40;;;;;;;;;;;;;;;12.03;63.11;100107.88;4953035;28;19917;-90
2022/04/23 02:41:06;;;;;;;;;;;;;;;11.99;63.53;100106.56;4970377;28;19960;-88
2022/04/23 02:43:31;;;;;;;;;;;;;;;11.97;63.55;100105.91;4986019;28;19910;-87
2022/04/23 02:45:58;;;;;;;;;;;;;;;11.95;63.18;100116.03;4927708;29;19918;-90
2022/04/23 02:48:23;;;;;;;;;;;;;;;11.92;63.87;100124.47;4929820;29;19919;-89
2022/04/23 02:50:49;;;;;;;;;;;;;;;11.88;63.79;100133.09;4975781;28;19932;-90
2022/04/23 02:53:17;;;;;;;;;;;;;;;12.01;63.37;100128.78;4949104;28;20000;-90
2022/04/23 02:55:42;;;;;;;;;;;;;;;12.04;63.28;100133.78;4955715;28;19917;-91
2022/04/23 02:58:09;;;;;;;;;;;;;;;11.95;63.97;100137.56;4929428;29;19910;-91
2022/04/23 03:00:34;;;;;;;;;;;;;;;11.98;63.76;100123.72;4970227;28;19924;-91
2022/04/23 03:03:00;;;;;;;;;;;;;;;12.00;63.32;100104.69;4948073;28;19914;-90
2022/04/23 03:05:26;;;;;;;;;;;;;;;11.84;64.15;100095.72;4941744;29;19945;-89
2022/04/23 03:07:52;;;;;;;;;;;;;;;11.68;64.72;100087.78;4960420;28;19918;-89
2022/04/23 03:10:18;;;;;;;;;;;;;;;11.88;63.34;100095.41;4922068;29;19954;-90
2022/04/23 03:12:43;;;;;;;;;;;;;;;11.80;64.08;100115.16;4931468;28;19914;-90
2022/04/23 03:15:09;;;;;;;;;;;;;;;11.87;63.86;100105.34;4960334;28;19940;-89
2022/04/23 03:17:36;;;;;;;;;;;;;;;11.91;63.61;100101.25;4916461;28;19919;-89
2022/04/23 03:20:01;;;;;;;;;;;;;;;11.85;64.04;100101.97;4944861;29;19960;-92
2022/04/23 03:22:29;;;;;;;;;;;;;;;11.90;63.73;100104.97;4957961;28;19918;-90
2022/04/23 03:24:54;;;;;;;;;;;;;;;11.98;63.35;100087.88;4958310;28;19910;-90
2022/04/23 03:27:20;;;;;;;;;;;;;;;11.94;63.56;100108.13;4958744;28;19914;-89
2022/04/23 03:29:45;;;;;;;;;;;;;;;11.92;63.65;100108.31;4963064;28;20364;-90
2022/04/23 03:32:10;;;;;;;;;;;;;;;11.92;63.41;100097.53;4936336;28;19953;-90
2022/04/23 03:34:36;;;;;;;;;;;;;;;11.85;63.60;100101.97;4943115;29;20407;-89
2022/04/23 03:37:02;;;;;;;;;;;;;;;11.95;63.30;100093.66;4955773;28;19936;-89
2022/04/23 03:39:29;;;;;;;;;;;;;;;12.07;62.32;100089.47;4968262;28;19917;-90
2022/04/23 03:41:55;;;;;;;;;;;;;;;12.14;61.94;100084.19;4953762;28;19923;-90
2022/04/23 03:44:21;;;;;;;;;;;;;;;12.13;62.46;100083.34;4927452;29;19978;-90
2022/04/23 03:46:46;;;;;;;;;;;;;;;12.20;62.54;100072.66;4924946;28;19944;-89
2022/04/23 03:49:11;;;;;;;;;;;;;;;12.24;61.99;100072.13;4966286;28;20219;-90
2022/04/23 03:51:37;;;;;;;;;;;;;;;12.21;62.18;100066.25;4940260;28;20360;-90
2022/04/23 03:54:02;;;;;;;;;;;;;;;12.30;61.85;100061.59;4948671;28;19910;-90
2022/04/23 03:56:27;;;;;;;;;;;;;;;12.25;61.97;100062.16;4975805;28;19914;-90
2022/04/23 03:58:53;;;;;;;;;;;;;;;12.27;61.95;100073.59;4912449;29;19910;-90
2022/04/23 04:01:18;;;;;;;;;;;;;;;12.34;62.09;100063.75;4956784;29;19922;-91
2022/04/23 04:03:44;;;;;;;;;;;;;;;12.46;61.27;100050.63;4934783;28;19922;-90
2022/04/23 04:06:09;;;;;;;;;;;;;;;12.53;60.83;100062.31;4958658;28;19921;-90
2022/04/23 04:08:35;;;;;;;;;;;;;;;12.46;61.31;100037.97;4970002;28;19938;-89
2022/04/23 04:11:00;;;;;;;;;;;;;;;12.61;61.08;100037.94;4956410;29;19922;-89
2022/04/23 04:13:25;;;;;;;;;;;;;;;12.65;60.83;100043.78;4966749;28;20008;-90
2022/04/23 04:15:50;;;;;;;;;;;;;;;12.73;60.92;100030.19;4957608;28;19918;-90
2022/04/23 04:18:16;;;;;;;;;;;;;;;12.80;60.55;100023.00;4933604;29;20010;-91
2022/04/23 04:20:41;;;;;;;;;;;;;;;12.79;60.65;100024.03;4922465;29;19911;-92
2022/04/23 04:23:07;;;;;;;;;;;;;;;12.86;60.38;100026.81;4944284;28;19957;-91
2022/04/23 04:25:37;;;;;;;;;;;;;;;12.92;59.79;100031.44;4942232;29;19968;-91
2022/04/23 04:28:02;;;;;;;;;;;;;;;12.89;60.59;100038.03;4933849;29;20001;-90
2022/04/23 04:31:46;;;;;;;;;;;;;;;13.00;60.20;100046.69;4923764;29;20320;-89
2022/04/23 04:33:13;;;;;;;;;;;;;;;13.05;59.76;100049.63;4960326;28;19914;-91
2022/04/23 04:35:38;;;;;;;;;;;;;;;13.19;59.44;100045.22;4955199;28;20286;-89
2022/04/23 04:38:03;;;;;;;;;;;;;;;13.23;59.58;100051.91;4969404;28;19914;-91
2022/04/23 04:40:31;;;;;;;;;;;;;;;13.26;58.74;100056.91;4971713;28;19914;-91
2022/04/23 04:42:57;;;;;;;;;;;;;;;13.37;58.63;100055.56;4969163;28;19918;-90
2022/04/23 04:45:22;;;;;;;;;;;;;;;13.50;58.76;100058.38;4962026;28;19918;-91
2022/04/23 04:47:47;;;;;;;;;;;;;;;13.63;58.00;100063.06;4960163;28;19969;-91
2022/04/23 04:50:13;;;;;;;;;;;;;;;13.78;56.88;100058.41;4969125;28;19910;-90
2022/04/23 04:52:38;;;;;;;;;;;;;;;13.77;57.04;100053.22;4970409;28;20321;-90
2022/04/23 04:55:03;;;;;;;;;;;;;;;13.81;56.86;100049.06;4967044;28;19910;-90
2022/04/23 04:57:29;;;;;;;;;;;;;;;13.77;57.09;100047.81;4968905;28;19914;-91
2022/04/23 04:59:57;;;;;;;;;;;;;;;13.97;57.08;100064.97;4965047;28;20402;-91
2022/04/23 05:02:22;;;;;;;;;;;;;;;14.11;56.40;100065.91;4957762;28;20012;-90
2022/04/23 05:04:50;;;;;;;;;;;;;;;14.25;56.18;100061.41;4969555;28;19941;-91
2022/04/23 05:07:15;;;;;;;;;;;;;;;14.31;56.06;100045.22;4941691;29;19915;-91
2022/04/23 05:09:40;;;;;;;;;;;;;;;14.39;55.92;100046.91;4930850;29;19910;-91
2022/04/23 05:12:06;;;;;;;;;;;;;;;14.76;55.10;100044.81;4958530;28;19914;-91
2022/04/23 05:14:31;;;;;;;;;;;;;;;14.69;55.32;100049.38;4949727;28;20000;-91
2022/04/23 05:16:57;;;;;;;;;;;;;;;14.82;54.88;100048.56;4973141;28;19914;-91
2022/04/23 05:19:22;;;;;;;;;;;;;;;15.17;53.93;100050.13;4962434;28;20045;-89
2022/04/23 05:21:47;;;;;;;;;;;;;;;15.27;53.87;100043.47;4944238;28;20100;-91
2022/04/23 05:24:15;;;;;;;;;;;;;;;15.28;53.32;100043.25;4966270;28;19921;-88
2022/04/23 05:26:42;;;;;;;;;;;;;;;15.25;53.63;100049.09;4959445;28;19997;-90
2022/04/23 05:29:08;;;;;;;;;;;;;;;15.26;53.38;100041.78;4964842;28;19917;-91
2022/04/23 05:31:33;;;;;;;;;;;;;;;15.84;51.53;100044.75;4956656;28;20716;-90
2022/04/23 05:33:59;;;;;;;;;;;;;;;15.93;51.36;100040.78;4964718;28;20013;-89
2022/04/23 05:36:24;;;;;;;;;;;;;;;16.19;50.52;100041.75;4937610;29;19918;-91
2022/04/23 05:38:52;;;;;;;;;;;;;;;16.16;50.61;100036.78;4922380;28;19921;-91
2022/04/23 05:41:17;;;;;;;;;;;;;;;16.17;50.68;100027.56;4962946;28;20330;-91
2022/04/23 05:43:43;;;;;;;;;;;;;;;16.38;50.05;100019.16;4984644;28;19910;-92
2022/04/23 05:46:08;;;;;;;;;;;;;;;16.63;49.80;100032.84;4974261;28;19949;-89
2022/04/23 05:48:34;;;;;;;;;;;;;;;17.06;48.60;100032.19;4964442;28;20326;-90
2022/04/23 05:51:00;;;;;;;;;;;;;;;16.76;50.01;100034.63;4939384;29;19958;-91
2022/04/23 05:53:25;;;;;;;;;;;;;;;16.31;51.90;100031.09;4921232;29;19914;-90
2022/04/23 05:55:56;;;;;;;;;;;;;;;16.99;50.43;100025.97;4954024;29;19910;-91
2022/04/23 05:58:24;;;;;;;;;;;;;;;17.30;49.09;100018.88;4964130;28;19914;-90
2022/04/23 06:00:50;;;;;;;;;;;;;;;17.31;48.98;100017.84;4957417;28;20291;-91
2022/04/23 06:03:15;;;;;;;;;;;;;;;17.88;46.83;100013.16;4931361;29;19981;-93
2022/04/23 06:05:40;;;;;;;;;;;;;;;18.97;44.09;100021.50;4977010;28;19917;-90
2022/04/23 06:08:06;;;;;;;;;;;;;;;20.51;41.34;100027.03;4975119;28;19910;-91
2022/04/23 06:10:31;;;;;;;;;;;;;;;21.59;39.19;100041.66;4991591;28;19918;-90
2022/04/23 06:12:56;;;;;;;;;;;;;;;21.77;37.95;100064.34;4951493;29;19976;-89
2022/04/23 06:15:22;;;;;;;;;;;;;;;23.61;35.01;100055.69;4925208;29;19914;-92
2022/04/23 06:17:47;;;;;;;;;;;;;;;23.62;33.95;100051.00;4936058;28;19918;-90
2022/04/23 06:20:12;;;;;;;;;;;;;;;24.39;33.16;100055.09;4928637;29;20272;-92
2022/04/23 06:22:40;;;;;;;;;;;;;;;25.03;32.17;100063.09;4936734;28;19910;-89
2022/04/23 06:25:06;;;;;;;;;;;;;;;25.59;30.74;100039.50;4929278;29;19922;-88
2022/04/23 06:27:31;;;;;;;;;;;;;;;26.91;28.33;100026.47;4927922;28;20442;-91
2022/04/23 06:29:57;;;;;;;;;;;;;;;27.87;27.17;100031.59;4946512;29;20004;-92
2022/04/23 06:32:23;;;;;;;;;;;;;;;28.77;26.04;100038.28;4958532;28;20254;-93
2022/04/23 06:34:48;;;;;;;;;;;;;;;28.90;26.09;100047.81;4947824;28;19997;-92
2022/04/23 06:37:14;;;;;;;;;;;;;;;29.64;24.90;100034.19;4970697;28;19972;-91
2022/04/23 06:39:39;;;;;;;;;;;;;;;29.31;24.59;100036.97;4963022;28;19917;-89
2022/04/23 06:42:07;;;;;;;;;;;;;;;29.24;24.91;100053.13;4939621;28;20307;-91
2022/04/23 06:44:40;;;;;;;;;;;;;;;30.25;23.77;100043.34;4927980;29;19918;-91
2022/04/23 06:47:05;;;;;;;;;;;;;;;31.08;22.77;100032.22;4953374;29;19910;-91
2022/04/23 06:49:30;;;;;;;;;;;;;;;30.70;22.74;100027.75;4936396;29;19917;-92
2022/04/23 06:51:56;;;;;;;;;;;;;;;31.32;22.10;100015.25;4955086;28;19917;-91
2022/04/23 06:54:22;;;;;;;;;;;;;;;31.78;21.67;100013.31;4908649;29;20038;-90
2022/04/23 06:56:47;;;;;;;;;;;;;;;31.71;21.95;100013.75;4954829;28;20005;-90
2022/04/23 06:59:12;;;;;;;;;;;;;;;32.24;21.27;100009.25;4947553;29;20367;-92
2022/04/23 07:01:40;;;;;;;;;;;;;;;32.58;20.46;100006.59;4955181;28;19914;-92
2022/04/23 07:04:06;;;;;;;;;;;;;;;32.29;20.58;100004.38;4964368;28;19918;-91
2022/04/23 07:06:33;;;;;;;;;;;;;;;32.37;20.51;100005.56;4940108;28;20255;-91
2022/04/23 07:08:59;;;;;;;;;;;;;;;32.92;19.92;100001.41;4932588;28;20358;-92
2022/04/23 07:11:28;;;;;;;;;;;;;;;32.74;20.22;100001.41;4973390;28;19953;-91
2022/04/23 07:13:53;;;;;;;;;;;;;;;33.33;20.00;100002.91;4966009;28;19921;-91
2022/04/23 07:16:21;;;;;;;;;;;;;;;32.55;20.63;99992.53;4956528;29;20013;-92
2022/04/23 07:18:46;;;;;;;;;;;;;;;33.09;20.38;99990.31;4966556;28;19910;-91
2022/04/23 07:21:12;;;;;;;;;;;;;;;33.17;19.69;99989.47;4922409;29;19920;-92
2022/04/23 07:26:22;;;;;;;;;;;;;;;32.79;20.06;99992.06;4947619;29;19916;-92
2022/04/23 07:28:48;;;;;;;;;;;;;;;32.74;20.46;99990.25;4972967;28;19914;-92
2022/04/23 07:31:14;;;;;;;;;;;;;;;32.27;20.64;99998.31;4932284;29;19982;-91
2022/04/23 07:39:10;;;;;;;;;;;;;;;33.59;19.88;100000.91;4961474;28;19973;-92
2022/04/23 07:41:38;;;;;;;;;;;;;;;34.16;19.34;99985.81;4973914;28;19914;-92
2022/04/23 07:44:04;;;;;;;;;;;;;;;34.34;18.55;99982.91;4910395;29;19966;-93
2022/04/23 07:46:30;;;;;;;;;;;;;;;32.65;20.75;99988.63;4953448;28;19964;-91
2022/04/23 07:48:57;;;;;;;;;;;;;;;33.13;20.33;99993.25;4946001;28;20012;-92
2022/04/23 07:51:22;;;;;;;;;;;;;;;32.04;21.31;99992.03;4973061;28;20401;-90
2022/04/23 07:53:49;;;;;;;;;;;;;;;31.49;21.92;99998.75;4928424;28;19918;-93
2022/04/23 07:56:14;;;;;;;;;;;;;;;30.68;22.98;100007.00;4942624;28;20337;-91
2022/04/23 07:58:42;;;;;;;;;;;;;;;30.50;23.11;100012.38;4967414;28;20005;-91
2022/04/23 08:01:08;;;;;;;;;;;;;;;29.19;24.49;100006.97;4927528;29;20330;-91
2022/04/23 08:03:35;;;;;;;;;;;;;;;29.72;24.20;100007.81;4925249;29;20005;-91
2022/04/23 08:06:01;;;;;;;;;;;;;;;29.10;24.58;100017.06;4902683;29;20264;-91
2022/04/23 08:08:26;;;;;;;;;;;;;;;30.13;23.83;100018.09;4957555;28;19921;-90
2022/04/23 08:10:51;;;;;;;;;;;;;;;29.86;23.86;100019.72;4975064;28;19920;-90
2022/04/23 08:13:17;;;;;;;;;;;;;;;30.56;22.91;100015.06;4949967;29;19910;-92
2022/04/23 08:15:42;;;;;;;;;;;;;;;29.79;24.02;100013.75;4974561;28;19922;-91
2022/04/23 08:18:08;;;;;;;;;;;;;;;29.52;24.10;100009.75;4953622;28;19914;-91
2022/04/23 08:20:33;;;;;;;;;;;;;;;30.16;23.61;100006.41;4958983;28;19969;-92
2022/04/23 08:22:58;;;;;;;;;;;;;;;29.56;24.42;100008.03;4967443;28;19914;-91
2022/04/23 08:25:24;;;;;;;;;;;;;;;29.56;24.45;100005.25;4942260;29;19961;-89
2022/04/23 08:27:53;;;;;;;;;;;;;;;29.55;24.52;99997.25;4934508;28;19914;-91
2022/04/23 08:30:34;;;;;;;;;;;;;;;29.20;24.60;99997.56;4927966;29;19906;-92
2022/04/23 08:32:59;;;;;;;;;;;;;;;28.77;25.48;100005.91;4963889;28;20016;-91
2022/04/23 08:35:25;;;;;;;;;;;;;;;28.93;25.35;100008.47;4962661;28;20346;-91
2022/04/23 08:37:50;;;;;;;;;;;;;;;28.51;25.72;100015.69;4961998;28;19914;-90
2022/04/23 08:40:16;;;;;;;;;;;;;;;28.98;25.38;100016.69;4962712;28;19910;-91
2022/04/23 08:42:44;;;;;;;;;;;;;;;29.65;24.55;100010.94;4922227;29;19925;-92
2022/04/23 08:45:12;;;;;;;;;;;;;;;29.92;24.05;100001.88;4930812;29;19993;-93
2022/04/23 08:47:37;;;;;;;;;;;;;;;30.50;23.39;100001.28;4949759;28;19952;-91
2022/04/23 08:50:04;;;;;;;;;;;;;;;30.80;23.03;99998.97;4963769;28;20352;-91
2022/04/23 08:52:33;;;;;;;;;;;;;;;31.39;22.40;99992.59;4933978;29;19921;-91
2022/04/23 08:55:02;;;;;;;;;;;;;;;31.37;22.47;99983.75;4937714;29;19914;-91
2022/04/23 08:57:28;;;;;;;;;;;;;;;30.27;23.70;100000.41;4916323;29;19915;-91
2022/04/23 08:59:56;;;;;;;;;;;;;;;30.82;23.06;99995.88;4927685;29;19993;-91
2022/04/23 09:02:22;;;;;;;;;;;;;;;31.49;22.54;99992.34;4929290;28;20195;-91
2022/04/23 09:04:48;;;;;;;;;;;;;;;31.07;22.85;99997.25;4963844;28;19914;-92
2022/04/23 09:07:32;;;;;;;;;;;;;;;31.32;22.80;99993.84;4934590;29;19957;-91
2022/04/23 09:09:57;;;;;;;;;;;;;;;31.68;21.78;99995.75;4958412;28;19929;-92
2022/04/23 09:12:24;;;;;;;;;;;;;;;30.91;23.05;99999.59;4937328;28;19914;-92
2022/04/23 09:14:50;;;;;;;;;;;;;;;30.51;22.87;99999.34;4930642;29;19911;-91
2022/04/23 09:25:41;;;;;;;;;;;;;;;30.97;22.52;100014.16;4964184;28;19917;-92
2022/04/23 09:28:17;;;;;;;;;;;;;;;32.44;21.05;100010.66;4931505;29;19915;-91
2022/04/23 09:30:43;;;;;;;;;;;;;;;32.28;20.93;100008.28;4920185;29;19914;-93
2022/04/23 09:33:08;;;;;;;;;;;;;;;32.62;20.79;100011.53;4959240;28;20445;-90
2022/04/23 09:35:33;;;;;;;;;;;;;;;32.34;20.99;100011.78;4966505;28;19902;-90
2022/04/23 09:38:14;;;;;;;;;;;;;;;32.58;20.39;100012.16;4982299;28;19944;-88
2022/04/23 09:40:40;;;;;;;;;;;;;;;31.51;21.71;100009.53;4980981;28;19906;-90
2022/04/23 09:43:05;;;;;;;;;;;;;;;32.09;21.19;100000.22;4962284;28;19949;-90
2022/04/23 09:45:31;;;;;;;;;;;;;;;32.69;20.59;100003.53;4968832;29;19914;-92
2022/04/23 09:48:05;;;;;;;;;;;;;;;31.45;21.99;100005.25;4961074;28;19918;-90
2022/04/23 09:50:40;;;;;;;;;;;;;;;31.46;22.13;99998.56;4971218;28;19964;-91
2022/04/23 09:53:12;;;;;;;;;;;;;;;32.17;21.62;100005.00;4975738;28;19921;-91
2022/04/23 09:55:37;;;;;;;;;;;;;;;31.54;22.20;100001.41;4975157;28;19910;-92
2022/04/23 09:58:08;;;;;;;;;;;;;;;32.43;20.99;99995.09;4974345;28;19964;-92
2022/04/23 10:00:37;;;;;;;;;;;;;;;32.20;21.22;99997.16;4974583;28;19914;-91
2022/04/23 10:03:03;;;;;;;;;;;;;;;33.14;19.75;99998.50;4973346;28;19918;-90
2022/04/23 10:05:29;;;;;;;;;;;;;;;33.71;19.41;99989.06;4957917;28;19925;-92
2022/04/23 10:07:54;;;;;;;;;;;;;;;34.50;18.45;99983.97;4957711;28;19910;-91
2022/04/23 10:10:20;;;;;;;;;;;;;;;35.22;18.30;99992.34;4959922;28;20295;-91
2022/04/23 10:12:45;;;;;;;;;;;;;;;35.04;18.23;99988.84;4979207;28;19915;-90
2022/04/23 10:15:11;;;;;;;;;;;;;;;35.66;17.34;99989.91;4953090;29;19910;-89
2022/04/23 10:17:37;;;;;;;;;;;;;;;36.99;16.47;99989.41;4983478;28;19902;-91
2022/04/23 10:20:02;;;;;;;;;;;;;;;35.96;16.88;99981.34;4990507;28;19941;-90
2022/04/23 10:22:29;;;;;;;;;;;;;;;37.23;16.40;99985.75;4991019;28;19918;-89
2022/04/23 10:24:54;;;;;;;;;;;;;;;35.79;17.35;99980.41;4978396;28;19910;-91
2022/04/23 10:27:20;;;;;;;;;;;;;;;34.56;18.38;99981.78;4971567;28;19914;-91
2022/04/23 10:29:45;;;;;;;;;;;;;;;34.14;18.77;99974.19;4948145;28;19976;-91
2022/04/23 10:32:11;;;;;;;;;;;;;;;35.58;17.57;99982.44;4969209;28;19918;-90
2022/04/23 10:34:37;;;;;;;;;;;;;;;36.55;16.60;99980.91;4963385;28;19906;-92
2022/04/23 10:37:12;;;;;;;;;;;;;;;36.69;16.86;99974.91;4954742;28;19922;-91
2022/04/23 10:39:37;;;;;;;;;;;;;;;35.25;17.92;99977.69;4962725;28;19917;-90
2022/04/23 10:42:02;;;;;;;;;;;;;;;33.92;19.10;99982.78;4955269;28;19917;-92
2022/04/23 10:44:29;;;;;;;;;;;;;;;33.54;19.58;99981.56;4945322;28;19960;-92
2022/04/23 10:46:56;;;;;;;;;;;;;;;35.43;18.00;99986.72;4973934;28;19914;-92
2022/04/23 10:49:22;;;;;;;;;;;;;;;34.88;18.39;99985.84;4951975;28;19910;-92
2022/04/23 10:51:48;;;;;;;;;;;;;;;36.10;16.93;99979.06;4938016;28;19972;-91
2022/04/23 10:54:16;;;;;;;;;;;;;;;36.92;16.61;99983.59;4947652;29;19914;-91
2022/04/23 10:56:41;;;;;;;;;;;;;;;35.60;17.16;99982.91;4954889;28;20343;-90
2022/04/23 10:59:29;;;;;;;;;;;;;;;34.46;18.27;99971.84;4963971;28;19918;-91
2022/04/23 11:01:54;;;;;;;;;;;;;;;35.79;17.12;99972.00;4938823;28;19937;-92
2022/04/23 11:04:19;;;;;;;;;;;;;;;34.92;18.03;99964.47;4945409;29;19918;-91
2022/04/23 11:12:23;;;;;;;;;;;;;;;34.42;18.53;99970.91;4956962;28;19926;-90
2022/04/23 11:14:52;;;;;;;;;;;;;;;32.98;20.13;99975.84;4949741;29;19917;-92
2022/04/23 11:17:36;;;;;;;;;;;;;;;32.56;20.54;99958.00;4955518;28;19942;-91
2022/04/23 11:20:01;;;;;;;;;;;;;;;31.48;21.68;99968.50;4956697;28;19909;-89
2022/04/23 11:22:29;;;;;;;;;;;;;;;33.28;19.80;99970.47;4969106;28;19921;-92
2022/04/23 11:24:54;;;;;;;;;;;;;;;32.51;20.31;99967.31;4965206;28;19914;-93
2022/04/23 11:27:24;;;;;;;;;;;;;;;30.62;22.58;99961.09;4935723;28;19973;-92
2022/04/23 11:29:53;;;;;;;;;;;;;;;30.87;22.12;99960.53;4964144;28;20290;-93
2022/04/23 11:32:25;;;;;;;;;;;;;;;29.82;23.70;99963.28;4950438;28;20379;-92
2022/04/23 11:35:06;;;;;;;;;;;;;;;28.64;24.87;99967.94;4964307;28;20017;-91
2022/04/23 11:37:32;;;;;;;;;;;;;;;28.05;25.59;99961.78;4950145;29;19997;-92
2022/04/23 11:40:04;;;;;;;;;;;;;;;27.19;26.58;99949.59;4961485;28;20014;-92
2022/04/23 11:42:39;;;;;;;;;;;;;;;27.82;25.94;99966.13;4941384;28;19942;-93
2022/04/23 11:45:05;;;;;;;;;;;;;;;27.48;26.02;99958.75;4946351;29;20239;-92
2022/04/23 11:47:30;;;;;;;;;;;;;;;26.15;28.16;99967.81;4936301;29;20368;-91
2022/04/23 11:50:06;;;;;;;;;;;;;;;27.21;26.58;99975.00;4929684;29;19910;-91
2022/04/23 11:52:33;;;;;;;;;;;;;;;27.06;26.98;99979.47;4951169;28;19914;-92
2022/04/23 11:54:59;;;;;;;;;;;;;;;26.48;27.86;99963.56;4955750;28;20221;-90
2022/04/23 11:57:24;;;;;;;;;;;;;;;26.31;28.51;99974.09;4968260;28;19938;-90
2022/04/23 11:59:50;;;;;;;;;;;;;;;27.15;26.66;99968.66;4927856;29;20009;-92
2022/04/23 12:02:22;;;;;;;;;;;;;;;27.05;26.97;99966.81;4956659;28;19920;-91
2022/04/23 12:04:48;;;;;;;;;;;;;;;27.46;26.63;99971.19;4944630;29;19911;-93
2022/04/23 12:07:13;;;;;;;;;;;;;;;27.61;26.71;99961.94;4959478;28;19910;-91
2022/04/23 12:09:46;;;;;;;;;;;;;;;28.09;25.50;99967.53;4964807;28;19977;-92
2022/04/23 12:12:13;;;;;;;;;;;;;;;27.86;25.96;99970.00;4938653;28;19915;-91
2022/04/23 12:15:02;;;;;;;;;;;;;;;28.15;26.76;99963.59;4958147;28;19913;-91
2022/04/23 12:17:29;;;;;;;;;;;;;;;28.19;27.16;99956.38;4960763;28;19918;-91
2022/04/23 12:19:55;;;;;;;;;;;;;;;28.25;27.34;99960.69;4964932;28;19914;-91
2022/04/23 12:22:27;;;;;;;;;;;;;;;28.32;27.45;99955.63;4958799;28;19909;-91
2022/04/23 12:25:16;;;;;;;;;;;;;;;28.47;26.56;99946.34;4933096;29;19925;-92
2022/04/23 12:27:54;;;;;;;;;;;;;;;28.33;27.33;99946.22;4966778;28;19911;-89
2022/04/23 12:41:27;;;;;;;;;;;;;;;25.48;29.83;99951.44;4972336;28;20024;-90
2022/04/23 12:43:53;;;;;;;;;;;;;;;24.48;32.29;99940.88;4940493;28;19969;-90
2022/04/23 12:46:18;;;;;;;;;;;;;;;25.21;31.27;99950.91;4943885;29;20009;-89
2022/04/23 12:48:56;;;;;;;;;;;;;;;25.69;30.98;99948.66;4963260;28;19918;-87
2022/04/23 12:51:21;;;;;;;;;;;;;;;25.49;31.33;99944.81;4982686;28;19928;-90
2022/04/23 12:53:46;;;;;;;;;;;;;;;25.99;30.12;99946.94;4971705;28;19914;-91
2022/04/23 12:56:12;;;;;;;;;;;;;;;26.01;30.69;99942.84;4962572;28;19920;-90
2022/04/23 12:58:39;;;;;;;;;;;;;;;26.19;30.46;99946.88;4973278;28;19914;-91
2022/04/23 13:01:08;;;;;;;;;;;;;;;25.04;31.50;99943.72;4922431;29;20423;-90
2022/04/23 13:03:40;;;;;;;;;;;;;;;23.46;34.87;99945.81;4963709;28;20287;-90
2022/04/23 13:08:54;;;;;;;;;;;;;;;23.35;34.72;99955.91;4921026;29;19918;-90
2022/04/23 13:08:54;;;;;;;;;;;;;;;23.73;34.56;99959.44;4962578;28;19915;-90